createdAt,value
2022-11-21T00:10:26.299Z,2887.93156
2022-11-21T00:25:28.210Z,2891.04692
2022-11-21T00:40:30.180Z,2887.93156
2022-11-21T00:55:32.054Z,2967.88536
2022-11-21T01:10:33.995Z,2925.76472
2022-11-21T01:25:36.161Z,2780.08351
2022-11-21T01:40:38.106Z,2163.03521
2022-11-21T01:55:40.076Z,1624.24292
2022-11-21T02:10:41.994Z,1652.28163
2022-11-21T02:25:43.873Z,1823.12975
2022-11-21T02:40:45.762Z,1895.33289
2022-11-21T02:55:47.690Z,2133.75847
2022-11-21T03:10:49.613Z,2116.90414
2022-11-21T03:25:51.502Z,2207.57876
2022-11-21T03:40:53.413Z,2384.34215
2022-11-21T03:55:55.337Z,2310.34534
2022-11-21T04:10:57.221Z,2425.33988
2022-11-21T04:25:59.210Z,2545.10973
2022-11-21T04:41:01.130Z,2483.78179
2022-11-21T04:56:03.046Z,2523.541
2022-11-21T05:11:04.971Z,2470.0466
2022-11-21T05:26:06.844Z,2401.4342
2022-11-21T05:41:08.748Z,2191.33329
2022-11-21T05:56:10.656Z,1964.80988
2022-11-21T06:11:12.616Z,1306.04339
2022-11-21T06:26:14.586Z,1495.53623
2022-11-21T06:41:16.504Z,1570.00635
2022-11-21T06:56:18.437Z,1796.24714
2022-11-21T07:11:25.042Z,2216.70853
2022-11-21T07:26:27.497Z,2427.53674
2022-11-21T07:41:29.478Z,2500.00051
2022-11-21T07:56:31.545Z,2547.52903
2022-11-21T08:11:33.513Z,2514.07181
2022-11-21T08:26:35.419Z,2601.94227
2022-11-21T08:41:37.347Z,2637.79579
2022-11-21T08:56:39.267Z,2680.00052
2022-11-21T09:11:41.161Z,2751.54056
2022-11-21T09:26:43.161Z,2841.99416
2022-11-21T09:41:45.055Z,2875.53701
2022-11-21T09:56:47.078Z,2961.3265
2022-11-21T10:11:48.995Z,3012.92909
2022-11-21T10:26:50.995Z,3045.45503
2022-11-21T10:41:52.832Z,3084.00509
2022-11-21T10:56:54.714Z,3123.54361
2022-11-21T11:11:56.672Z,3130.84161
2022-11-21T11:26:58.548Z,3132.67144
2022-11-21T11:42:00.498Z,2994.41389
2022-11-21T11:57:02.442Z,2525.91946
2022-11-21T12:12:04.464Z,2384.34215
2022-11-21T12:27:06.398Z,2346.76058
2022-11-21T12:42:08.287Z,2377.99519
2022-11-21T12:57:10.207Z,2397.13826
2022-11-21T13:12:12.095Z,2384.34215
2022-11-21T13:27:14.009Z,2470.0466
2022-11-21T13:42:20.169Z,2467.77215
2022-11-21T13:57:22.773Z,2456.46247
2022-11-21T14:12:29.971Z,2545.10973
2022-11-21T14:27:34.732Z,2342.65785
2022-11-21T14:42:36.636Z,1949.09141
2022-11-21T14:57:38.588Z,1715.74953
2022-11-21T15:12:44.584Z,1720.15454
2022-11-21T15:27:47.797Z,1741.39101
2022-11-21T15:42:49.769Z,1687.65792
2022-11-21T15:57:51.664Z,1714.65181
2022-11-21T16:12:53.618Z,1654.32148
2022-11-21T16:27:55.535Z,1731.26664
2022-11-21T16:42:57.419Z,1807.14817
2022-11-21T16:57:59.337Z,1855.95618
2022-11-21T17:13:01.250Z,1914.28621
2022-11-21T17:28:03.173Z,2066.30736
2022-11-21T17:43:05.134Z,2184.18958
2022-11-21T17:58:07.023Z,2238.93117
2022-11-21T18:13:08.939Z,2399.28431
2022-11-21T18:28:10.826Z,2412.24174
2022-11-21T18:43:12.850Z,2405.74557
2022-11-21T18:58:14.765Z,2562.14201
2022-11-21T19:13:16.669Z,2630.02996
2022-11-21T19:28:18.478Z,2591.87673
2022-11-21T19:43:20.520Z,2666.66719
2022-11-21T19:58:22.482Z,2693.46786
2022-11-21T20:13:24.423Z,2845.01114
2022-11-21T20:28:26.348Z,2961.3265
2022-11-21T20:43:52.664Z,3040.27275
2022-11-21T20:59:05.054Z,3091.11928
2022-11-21T21:14:06.988Z,2720.81271
2022-11-21T21:29:08.908Z,2800.4185
2022-11-21T21:44:10.842Z,2958.05793
2022-11-21T21:59:12.764Z,2754.36846
2022-11-21T22:14:14.641Z,2757.20217
2022-11-21T22:29:16.609Z,2841.99416
2022-11-21T22:44:18.521Z,2941.8227
2022-11-21T22:59:20.423Z,3011.23644
2022-11-21T23:14:22.363Z,3061.10842
2022-11-21T23:29:24.259Z,3156.65537
2022-11-21T23:44:26.210Z,3250.45531
2022-11-21T23:59:28.556Z,3302.52667
